createdAt,value
2018-01-18T00:28:56.799Z,99915.47
2018-01-18T00:31:24.316Z,99929.50
2018-01-18T00:33:51.847Z,99925.95
2018-01-18T00:36:19.359Z,99914.34
2018-01-18T00:38:46.874Z,99925.34
2018-01-18T00:41:14.387Z,99925.73
2018-01-18T00:43:41.890Z,99923.55
2018-01-18T00:46:09.426Z,99934.94
2018-01-18T00:48:36.938Z,99932.15
2018-01-18T00:51:04.436Z,99928.08
2018-01-18T00:53:31.956Z,99921.08
2018-01-18T00:55:59.461Z,99920.07
2018-01-18T00:58:26.971Z,99919.84
2018-01-18T01:00:54.472Z,99917.73
2018-01-18T01:03:21.980Z,99928.31
2018-01-18T01:05:49.496Z,99910.98
2018-01-18T01:08:17.008Z,99913.52
2018-01-18T01:10:44.544Z,99916.20
2018-01-18T01:13:12.066Z,99920.67
2018-01-18T01:15:39.585Z,99923.73
2018-01-18T01:18:07.089Z,99932.17
2018-01-18T01:20:34.601Z,99923.36
2018-01-18T01:23:02.110Z,99932.23
2018-01-18T01:25:29.628Z,99935.78
2018-01-18T01:27:57.129Z,99940.11
2018-01-18T01:30:24.642Z,99941.39
2018-01-18T01:32:52.172Z,99933.82
2018-01-18T01:35:19.677Z,99929.39
2018-01-18T01:37:47.171Z,99935.07
2018-01-18T01:40:14.699Z,99926.22
2018-01-18T01:42:42.229Z,99923.48
2018-01-18T01:45:09.733Z,99922.48
2018-01-18T01:47:37.297Z,99920.23
2018-01-18T01:50:04.803Z,99922.78
2018-01-18T01:52:32.304Z,99917.97
2018-01-18T01:54:59.819Z,99916.16
2018-01-18T01:57:27.338Z,99919.15
2018-01-18T01:59:54.840Z,99917.78
2018-01-18T02:02:22.343Z,99924.06
2018-01-18T02:04:49.859Z,99909.84
2018-01-18T02:07:17.372Z,99912.80
2018-01-18T02:09:44.871Z,99911.95
2018-01-18T02:12:12.380Z,99913.11
2018-01-18T02:14:39.886Z,99918.20
2018-01-18T02:17:07.409Z,99914.55
2018-01-18T02:19:34.922Z,99908.91
2018-01-18T02:22:02.422Z,99900.59
2018-01-18T02:24:29.925Z,99907.03
2018-01-18T02:26:57.425Z,99911.16
2018-01-18T02:29:24.928Z,99922.59
2018-01-18T02:31:52.453Z,99926.23
2018-01-18T02:34:19.960Z,99921.26
2018-01-18T02:36:47.473Z,99919.98
2018-01-18T02:39:14.971Z,99916.52
2018-01-18T02:41:42.477Z,99920.38
2018-01-18T02:44:09.988Z,99914.73
2018-01-18T02:46:37.497Z,99918.06
2018-01-18T02:49:05.049Z,99917.16
2018-01-18T02:51:32.566Z,99914.53
2018-01-18T02:54:00.081Z,99908.34
2018-01-18T02:56:27.620Z,99901.20
2018-01-18T02:58:55.142Z,99899.98
2018-01-18T03:01:22.657Z,99905.62
2018-01-18T03:03:50.170Z,99910.39
2018-01-18T03:06:17.698Z,99902.87
2018-01-18T03:08:45.216Z,99892.64
2018-01-18T03:11:12.737Z,99891.99
2018-01-18T03:13:40.247Z,99888.36
2018-01-18T03:16:07.766Z,99877.34
2018-01-18T03:18:35.290Z,99876.97
2018-01-18T03:21:02.804Z,99879.23
2018-01-18T03:23:30.329Z,99882.27
2018-01-18T03:25:57.864Z,99879.64
2018-01-18T03:28:25.378Z,99875.94
2018-01-18T03:30:52.882Z,99874.23
2018-01-18T03:33:20.400Z,99871.98
2018-01-18T03:35:47.931Z,99873.34
2018-01-18T03:38:15.444Z,99870.97
2018-01-18T03:40:42.952Z,99868.86
2018-01-18T03:43:10.465Z,99858.30
2018-01-18T03:45:37.977Z,99852.02
2018-01-18T03:48:05.492Z,99845.79
2018-01-18T03:50:33.013Z,99841.87
2018-01-18T03:53:00.540Z,99850.17
2018-01-18T03:55:28.058Z,99849.69
2018-01-18T03:57:55.581Z,99850.09
2018-01-18T04:00:23.087Z,99847.83
2018-01-18T04:02:50.601Z,99842.81
2018-01-18T04:05:18.108Z,99837.95
2018-01-18T04:07:45.618Z,99839.89
2018-01-18T04:10:13.124Z,99831.80
2018-01-18T04:12:40.649Z,99833.69
2018-01-18T04:15:08.166Z,99825.67
2018-01-18T04:17:35.684Z,99822.84
2018-01-18T04:20:03.197Z,99818.41
2018-01-18T04:22:30.715Z,99817.59
2018-01-18T04:24:58.228Z,99809.96
2018-01-18T04:27:25.744Z,99812.84
2018-01-18T04:29:53.271Z,99816.50
2018-01-18T04:32:20.781Z,99810.87
2018-01-18T04:34:48.309Z,99809.73
2018-01-18T04:37:15.816Z,99804.35
2018-01-18T04:39:43.330Z,99807.08
2018-01-18T04:42:10.837Z,99813.72
2018-01-18T04:44:38.352Z,99811.25
2018-01-18T04:47:05.878Z,99813.80
2018-01-18T04:49:33.418Z,99815.48
2018-01-18T04:52:00.923Z,99802.63
2018-01-18T04:54:28.428Z,99808.15
2018-01-18T04:56:55.944Z,99808.81
2018-01-18T04:59:23.473Z,99807.64
2018-01-18T05:01:50.989Z,99806.16
2018-01-18T05:04:18.515Z,99797.55
2018-01-18T05:06:46.030Z,99793.03
2018-01-18T05:09:13.550Z,99788.58
2018-01-18T05:11:41.068Z,99783.29
2018-01-18T05:14:08.573Z,99778.06
2018-01-18T05:16:36.087Z,99784.97
2018-01-18T05:19:03.592Z,99792.77
2018-01-18T05:21:31.103Z,99784.83
2018-01-18T05:23:58.617Z,99779.39
2018-01-18T05:26:26.142Z,99781.80
2018-01-18T05:28:53.646Z,99776.41
2018-01-18T05:31:21.173Z,99770.34
2018-01-18T05:33:48.688Z,99757.86
2018-01-18T05:36:16.197Z,99750.41
2018-01-18T05:38:43.705Z,99739.48
2018-01-18T05:41:11.219Z,99737.35
2018-01-18T05:43:38.725Z,99722.79
2018-01-18T05:46:06.255Z,99721.11
2018-01-18T05:48:33.791Z,99712.79
2018-01-18T05:51:01.316Z,99707.75
2018-01-18T05:53:28.829Z,99709.91
2018-01-18T05:55:56.347Z,99705.64
2018-01-18T05:58:23.854Z,99691.02
2018-01-18T06:00:51.367Z,99687.63
2018-01-18T06:03:18.878Z,99683.15
2018-01-18T06:05:46.399Z,99678.34
2018-01-18T06:08:13.914Z,99673.16
2018-01-18T06:10:41.429Z,99663.17
2018-01-18T06:13:08.948Z,99657.41
2018-01-18T06:15:36.468Z,99648.17
2018-01-18T06:18:03.978Z,99646.75
2018-01-18T06:20:31.489Z,99635.36
2018-01-18T06:22:59.009Z,99636.25
2018-01-18T06:25:26.513Z,99632.77
2018-01-18T06:27:54.907Z,99638.05
2018-01-18T06:30:22.427Z,99640.64
2018-01-18T06:32:49.970Z,99640.19
2018-01-18T06:35:17.487Z,99636.09
2018-01-18T06:37:45.004Z,99626.48
2018-01-18T06:40:12.524Z,99623.78
2018-01-18T06:42:40.037Z,99615.84
2018-01-18T06:45:07.549Z,99610.89
2018-01-18T06:47:35.062Z,99592.83
2018-01-18T06:50:02.580Z,99587.92
2018-01-18T06:52:30.100Z,99585.70
2018-01-18T06:54:57.613Z,99574.70
2018-01-18T06:57:25.140Z,99568.48
2018-01-18T06:59:52.661Z,99560.95
2018-01-18T07:02:20.186Z,99559.09
2018-01-18T07:04:47.704Z,99545.97
2018-01-18T07:07:15.226Z,99539.69
2018-01-18T07:09:42.760Z,99534.40
2018-01-18T07:12:10.289Z,99528.23
2018-01-18T07:14:37.806Z,99506.70
2018-01-18T07:17:05.337Z,99501.67
2018-01-18T07:19:32.865Z,99492.73
2018-01-18T07:22:00.376Z,99488.33
2018-01-18T07:24:27.919Z,99485.17
2018-01-18T07:26:55.443Z,99479.48
2018-01-18T07:29:22.958Z,99472.28
2018-01-18T07:31:50.478Z,99469.52
2018-01-18T07:34:17.991Z,99456.81
2018-01-18T07:36:45.510Z,99446.83
2018-01-18T07:39:13.038Z,99439.81
2018-01-18T07:41:40.548Z,99428.73
2018-01-18T07:44:08.072Z,99407.38
2018-01-18T07:46:35.574Z,99402.43
2018-01-18T07:49:03.103Z,99387.84
2018-01-18T07:51:30.633Z,99383.86
2018-01-18T07:54:00.023Z,99359.41
2018-01-18T07:56:27.569Z,99355.11
2018-01-18T07:58:55.091Z,99341.97
2018-01-18T08:01:22.601Z,99344.82
2018-01-18T08:03:55.790Z,99327.84
2018-01-18T08:06:23.314Z,99321.75
2018-01-18T08:08:50.839Z,99313.41
2018-01-18T08:11:18.354Z,99304.55
2018-01-18T08:13:45.880Z,99285.12
2018-01-18T08:16:13.403Z,99278.40
2018-01-18T08:18:40.932Z,99272.67
2018-01-18T08:21:08.452Z,99263.30
2018-01-18T08:23:35.986Z,99245.49
2018-01-18T08:26:03.504Z,99244.59
2018-01-18T08:28:31.027Z,99231.55
2018-01-18T08:30:58.555Z,99229.65
2018-01-18T08:33:26.082Z,99225.57
2018-01-18T08:35:53.597Z,99216.87
2018-01-18T08:38:21.110Z,99197.69
2018-01-18T08:40:48.612Z,99193.61
2018-01-18T08:43:16.129Z,99190.16
2018-01-18T08:45:43.646Z,99175.92
2018-01-18T08:48:11.152Z,99175.55
2018-01-18T08:50:38.659Z,99155.01
2018-01-18T08:53:07.337Z,99134.73
2018-01-18T08:55:34.854Z,99133.37
2018-01-18T08:58:02.359Z,99131.26
2018-01-18T09:00:29.895Z,99117.22
2018-01-18T09:02:57.445Z,99111.06
2018-01-18T09:05:24.956Z,99106.55
2018-01-18T09:07:52.462Z,99103.47
2018-01-18T09:10:19.973Z,99093.60
2018-01-18T09:12:47.487Z,99075.37
2018-01-18T09:15:15.013Z,99059.55
2018-01-18T09:17:42.526Z,99041.62
2018-01-18T09:20:10.031Z,99030.24
2018-01-18T09:22:37.557Z,99016.64
2018-01-18T09:25:05.083Z,99006.12
2018-01-18T09:27:32.596Z,98983.57
2018-01-18T09:30:00.124Z,98971.34
2018-01-18T09:32:27.660Z,98940.66
2018-01-18T09:34:55.177Z,98922.94
2018-01-18T09:37:22.689Z,98912.78
2018-01-18T09:39:50.211Z,98906.86
2018-01-18T09:42:17.728Z,98885.14
2018-01-18T09:44:45.278Z,98881.95
2018-01-18T09:47:12.781Z,98882.66
2018-01-18T09:49:40.286Z,98863.46
2018-01-18T09:52:07.846Z,98859.56
2018-01-18T09:54:35.361Z,98853.69
2018-01-18T09:57:02.904Z,98830.19
2018-01-18T09:59:30.422Z,98828.58
2018-01-18T10:01:57.924Z,98818.69
2018-01-18T10:04:25.449Z,98788.86
2018-01-18T10:06:52.970Z,98779.38
2018-01-18T10:09:20.471Z,98761.92
2018-01-18T10:11:47.988Z,98736.33
2018-01-18T10:14:15.489Z,98721.22
2018-01-18T10:16:42.993Z,98709.36
2018-01-18T10:19:10.502Z,98694.79
2018-01-18T10:21:38.008Z,98669.83
2018-01-18T10:24:05.523Z,98667.47
2018-01-18T10:26:33.028Z,98649.58
2018-01-18T10:29:00.532Z,98636.41
2018-01-18T10:31:28.043Z,98611.70
2018-01-18T10:33:55.561Z,98600.95
2018-01-18T10:36:23.056Z,98602.03
2018-01-18T10:38:50.572Z,98586.49
2018-01-18T10:41:18.082Z,98566.88
2018-01-18T10:43:45.605Z,98543.09
2018-01-18T10:46:13.131Z,98545.19
2018-01-18T10:48:40.638Z,98523.63
2018-01-18T10:51:08.151Z,98511.87
2018-01-18T10:53:35.663Z,98499.20
2018-01-18T10:56:03.171Z,98470.80
2018-01-18T10:58:30.708Z,98447.95
2018-01-18T11:00:58.242Z,98440.91
2018-01-18T11:03:25.749Z,98445.94
2018-01-18T11:05:53.278Z,98436.82
2018-01-18T11:08:20.797Z,98423.52
2018-01-18T11:10:48.320Z,98414.45
2018-01-18T11:13:15.837Z,98391.81
2018-01-18T11:15:43.351Z,98373.70
2018-01-18T11:18:10.864Z,98356.03
2018-01-18T11:20:38.379Z,98340.00
2018-01-18T11:23:05.895Z,98333.09
2018-01-18T11:25:33.408Z,98336.92
2018-01-18T11:28:00.945Z,98302.39
2018-01-18T11:30:28.474Z,98288.53
2018-01-18T11:32:56.000Z,98283.17
2018-01-18T11:35:23.509Z,98273.05
2018-01-18T11:37:51.012Z,98262.34
2018-01-18T11:40:18.521Z,98245.64
2018-01-18T11:42:46.024Z,98232.01
2018-01-18T11:45:13.545Z,98197.80
2018-01-18T11:47:41.057Z,98181.41
2018-01-18T11:50:08.565Z,98179.52
2018-01-18T11:52:36.071Z,98188.38
2018-01-18T11:55:03.590Z,98185.03
2018-01-18T11:57:31.118Z,98179.71
2018-01-18T11:59:58.633Z,98167.53
2018-01-18T12:02:26.150Z,98145.33
2018-01-18T12:04:53.653Z,98132.28
2018-01-18T12:07:21.176Z,98111.06
2018-01-18T12:09:48.685Z,98108.58
2018-01-18T12:12:16.237Z,98096.53
2018-01-18T12:14:43.752Z,98068.69
2018-01-18T12:17:11.286Z,98081.93
2018-01-18T12:19:38.796Z,98091.72
2018-01-18T12:22:06.308Z,98069.27
2018-01-18T12:24:33.812Z,98052.00
2018-01-18T12:27:01.325Z,98042.41
2018-01-18T12:29:28.838Z,98028.06
2018-01-18T12:31:56.365Z,98022.47
2018-01-18T12:34:23.872Z,98004.36
2018-01-18T12:36:51.385Z,98009.18
2018-01-18T12:39:18.913Z,97997.09
2018-01-18T12:41:46.424Z,97986.22
2018-01-18T12:44:13.934Z,97972.34
2018-01-18T12:46:41.446Z,97967.72
2018-01-18T12:49:08.958Z,97947.35
2018-01-18T12:51:36.482Z,97937.88
2018-01-18T12:54:03.993Z,97924.45
2018-01-18T12:56:31.508Z,97903.21
2018-01-18T12:58:59.016Z,97902.14
2018-01-18T13:01:26.521Z,97899.77
2018-01-18T13:03:54.025Z,97888.02
2018-01-18T13:06:21.533Z,97889.88
2018-01-18T13:08:49.050Z,97870.42
2018-01-18T13:11:16.548Z,97860.72
2018-01-18T13:13:44.061Z,97861.63
2018-01-18T13:16:11.569Z,97866.00
2018-01-18T13:18:39.084Z,97859.49
2018-01-18T13:21:06.589Z,97849.95
2018-01-18T13:23:34.103Z,97831.75
2018-01-18T13:26:01.632Z,97818.29
2018-01-18T13:28:29.141Z,97812.48
2018-01-18T13:30:56.681Z,97812.89
2018-01-18T13:33:24.215Z,97799.45
2018-01-18T13:35:51.738Z,97791.02
2018-01-18T13:38:19.244Z,97779.99
2018-01-18T13:40:46.754Z,97783.09
2018-01-18T13:43:14.269Z,97777.78
2018-01-18T13:45:41.773Z,97773.27
2018-01-18T13:48:09.287Z,97762.66
2018-01-18T13:50:36.799Z,97762.39
2018-01-18T13:53:04.350Z,97760.91
2018-01-18T13:55:31.870Z,97744.23
2018-01-18T13:57:59.395Z,97737.95
2018-01-18T14:00:26.925Z,97741.44
2018-01-18T14:02:54.445Z,97753.28
2018-01-18T14:05:22.294Z,97761.98
2018-01-18T14:07:49.809Z,97745.41
2018-01-18T14:10:17.321Z,97749.39
2018-01-18T14:12:44.832Z,97757.16
2018-01-18T14:15:12.351Z,97760.00
2018-01-18T14:17:39.873Z,97757.79
2018-01-18T14:20:07.390Z,97757.70
2018-01-18T14:22:34.909Z,97769.73
2018-01-18T14:25:02.422Z,97760.52
2018-01-18T14:27:29.969Z,97768.79
2018-01-18T14:29:57.588Z,97777.38
2018-01-18T14:32:25.098Z,97765.73
2018-01-18T14:34:52.615Z,97768.34
2018-01-18T14:37:20.122Z,97775.00
2018-01-18T14:39:47.627Z,97772.89
2018-01-18T14:42:15.140Z,97775.30
2018-01-18T14:44:42.649Z,97772.16
2018-01-18T14:47:10.150Z,97791.81
2018-01-18T14:49:37.680Z,97807.78
2018-01-18T14:52:05.204Z,97792.91
2018-01-18T14:54:32.729Z,97815.28
2018-01-18T14:57:00.238Z,97805.48
2018-01-18T14:59:27.740Z,97803.63
2018-01-18T15:01:55.257Z,97815.48
2018-01-18T15:04:22.764Z,97821.77
2018-01-18T15:06:50.274Z,97829.27
2018-01-18T15:09:17.785Z,97831.81
2018-01-18T15:11:45.289Z,97838.57
2018-01-18T15:14:12.793Z,97834.76
2018-01-18T15:16:40.304Z,97848.66
2018-01-18T15:19:07.809Z,97844.79
2018-01-18T15:21:35.312Z,97848.97
2018-01-18T15:24:02.828Z,97856.14
2018-01-18T15:26:30.333Z,97855.30
2018-01-18T15:28:57.846Z,97868.65
2018-01-18T15:31:25.351Z,97871.95
2018-01-18T15:33:52.864Z,97887.59
2018-01-18T15:36:20.377Z,97871.61
2018-01-18T15:38:47.893Z,97887.80
2018-01-18T15:41:15.394Z,97895.45
2018-01-18T15:43:42.937Z,97901.36
2018-01-18T15:46:10.458Z,97909.15
2018-01-18T15:48:37.967Z,97914.09
2018-01-18T15:51:05.478Z,97920.13
2018-01-18T15:53:32.990Z,97909.59
2018-01-18T15:56:00.527Z,97933.23
2018-01-18T15:58:28.040Z,97942.70
2018-01-18T16:00:55.560Z,97957.84
2018-01-18T16:03:23.070Z,97953.25
2018-01-18T16:05:50.609Z,97965.11
2018-01-18T16:08:18.122Z,97973.92
2018-01-18T16:10:45.640Z,97971.98
2018-01-18T16:13:13.148Z,97975.62
2018-01-18T16:15:40.656Z,97982.49
2018-01-18T16:18:08.165Z,97990.85
2018-01-18T16:20:35.682Z,97995.09
2018-01-18T16:23:03.190Z,97998.03
2018-01-18T16:25:30.704Z,98014.33
2018-01-18T16:27:58.219Z,98014.57
2018-01-18T16:30:25.726Z,98014.63
2018-01-18T16:32:53.233Z,98010.87
2018-01-18T16:35:20.737Z,98012.20
2018-01-18T16:37:48.277Z,98020.29
2018-01-18T16:40:16.490Z,98026.52
2018-01-18T16:42:44.006Z,98020.11
2018-01-18T16:45:11.533Z,98033.45
2018-01-18T16:47:39.046Z,98043.63
2018-01-18T16:50:06.553Z,98041.98
2018-01-18T16:52:34.058Z,98057.92
2018-01-18T16:55:01.558Z,98066.92
2018-01-18T16:57:29.070Z,98058.20
2018-01-18T16:59:56.600Z,98075.73
2018-01-18T17:02:24.135Z,98069.03
2018-01-18T17:04:51.651Z,98108.92
2018-01-18T17:10:12.719Z,98116.35
2018-01-18T17:15:40.785Z,98142.30
2018-01-18T17:18:08.394Z,98163.30
2018-01-18T17:20:36.007Z,98184.81
2018-01-18T17:23:03.587Z,98195.33
2018-01-18T17:25:31.187Z,98223.45
2018-01-18T17:27:58.767Z,98221.05
2018-01-18T17:30:26.339Z,98238.69
2018-01-18T17:32:53.906Z,98268.44
2018-01-18T17:35:21.441Z,98275.62
2018-01-18T17:37:48.994Z,98295.48
2018-01-18T17:40:16.635Z,98284.53
2018-01-18T17:42:44.213Z,98326.72
2018-01-18T17:45:11.830Z,98332.11
2018-01-18T17:47:39.399Z,98337.06
2018-01-18T17:50:06.959Z,98345.80
2018-01-18T17:52:34.646Z,98373.72
2018-01-18T17:55:02.213Z,98392.16
2018-01-18T17:57:29.809Z,98413.49
2018-01-18T17:59:57.371Z,98400.87
2018-01-18T18:02:24.952Z,98419.59
2018-01-18T18:04:52.522Z,98439.58
2018-01-18T18:07:20.110Z,98444.29
2018-01-18T18:09:47.696Z,98452.83
2018-01-18T18:12:15.263Z,98455.94
2018-01-18T18:14:42.832Z,98492.50
2018-01-18T18:17:10.427Z,98499.19
2018-01-18T18:19:38.009Z,98515.70
2018-01-18T18:22:05.605Z,98533.36
2018-01-18T18:24:33.158Z,98539.50
2018-01-18T18:27:00.721Z,98561.11
2018-01-18T18:29:28.288Z,98574.29
2018-01-18T18:31:55.852Z,98583.16
2018-01-18T18:34:23.370Z,98601.66
2018-01-18T18:36:51.015Z,98610.33
2018-01-18T18:39:18.546Z,98628.98
2018-01-18T18:41:46.049Z,98629.98
2018-01-18T18:44:13.562Z,98654.22
2018-01-18T18:46:41.077Z,98649.58
2018-01-18T18:49:08.591Z,98684.85
2018-01-18T18:51:36.099Z,98707.83
2018-01-18T18:54:03.625Z,98703.47
2018-01-18T18:56:31.128Z,98720.63
2018-01-18T18:58:58.637Z,98734.12
2018-01-18T19:01:26.147Z,98738.16
2018-01-18T19:03:53.658Z,98734.50
2018-01-18T19:06:21.195Z,98763.91
2018-01-18T19:08:48.706Z,98780.20
2018-01-18T19:11:16.226Z,98806.85
2018-01-18T19:13:43.745Z,98795.41
2018-01-18T19:16:11.258Z,98819.27
2018-01-18T19:18:38.784Z,98828.48
2018-01-18T19:21:06.304Z,98823.03
2018-01-18T19:23:33.824Z,98833.73
2018-01-18T19:26:01.336Z,98860.63
2018-01-18T19:28:28.850Z,98849.97
2018-01-18T19:30:56.378Z,98870.55
2018-01-18T19:33:23.931Z,98881.67
2018-01-18T19:35:51.440Z,98899.34
2018-01-18T19:38:18.961Z,98901.25
2018-01-18T19:40:46.473Z,98942.58
2018-01-18T19:43:13.989Z,98934.33
2018-01-18T19:45:41.515Z,98938.11
2018-01-18T19:48:09.030Z,98966.02
2018-01-18T19:50:36.553Z,98963.36
2018-01-18T19:53:04.067Z,98975.69
2018-01-18T19:55:31.586Z,98992.03
2018-01-18T19:57:59.092Z,99011.38
2018-01-18T20:00:26.600Z,99026.14
2018-01-18T20:02:54.102Z,99033.33
2018-01-18T20:05:21.618Z,99035.52
2018-01-18T20:07:49.208Z,99068.70
2018-01-18T20:10:16.721Z,99069.23
2018-01-18T20:12:44.234Z,99077.14
2018-01-18T20:15:11.738Z,99090.34
2018-01-18T20:17:39.244Z,99106.02
2018-01-18T20:20:06.770Z,99097.25
2018-01-18T20:22:34.282Z,99123.78
2018-01-18T20:25:01.797Z,99134.80
2018-01-18T20:27:29.320Z,99135.09
2018-01-18T20:29:56.829Z,99155.91
2018-01-18T20:32:24.347Z,99165.70
2018-01-18T20:34:51.864Z,99161.67
2018-01-18T20:37:19.376Z,99179.23
2018-01-18T20:39:46.889Z,99193.03
2018-01-18T20:42:14.416Z,99203.67
2018-01-18T20:44:41.932Z,99204.38
2018-01-18T20:47:09.458Z,99211.39
2018-01-18T20:49:36.981Z,99213.75
2018-01-18T20:52:04.490Z,99214.54
2018-01-18T20:54:32.003Z,99218.05
2018-01-18T20:56:59.523Z,99236.15
2018-01-18T20:59:27.035Z,99244.95
2018-01-18T21:01:54.541Z,99243.59
2018-01-18T21:04:22.056Z,99265.56
2018-01-18T21:06:49.574Z,99271.39
2018-01-18T21:09:17.068Z,99270.09
2018-01-18T21:11:44.589Z,99283.33
2018-01-18T21:14:12.100Z,99284.82
2018-01-18T21:16:39.625Z,99290.18
2018-01-18T21:19:07.132Z,99295.20
2018-01-18T21:21:34.650Z,99313.91
2018-01-18T21:24:02.188Z,99328.59
2018-01-18T21:26:29.714Z,99326.28
2018-01-18T21:28:57.216Z,99333.15
2018-01-18T21:31:24.712Z,99338.37
2018-01-18T21:33:52.234Z,99347.80
2018-01-18T21:36:19.733Z,99353.00
2018-01-18T21:38:47.249Z,99356.88
2018-01-18T21:41:14.748Z,99360.81
2018-01-18T21:43:42.248Z,99387.28
2018-01-18T21:46:10.584Z,99391.99
2018-01-18T21:48:38.096Z,99396.48
2018-01-18T21:51:05.621Z,99410.19
2018-01-18T21:53:33.130Z,99408.86
2018-01-18T21:56:00.638Z,99411.94
2018-01-18T21:58:28.141Z,99420.68
2018-01-18T22:00:55.649Z,99422.77
2018-01-18T22:03:23.198Z,99434.53
2018-01-18T22:05:50.769Z,99440.16
2018-01-18T22:08:18.281Z,99438.66
2018-01-18T22:10:45.789Z,99452.02
2018-01-18T22:13:13.405Z,99452.59
2018-01-18T22:15:41.917Z,99454.32
2018-01-18T22:18:09.434Z,99456.84
2018-01-18T22:20:36.942Z,99458.44
2018-01-18T22:23:04.480Z,99468.28
2018-01-18T22:25:32.020Z,99466.41
2018-01-18T22:27:59.619Z,99485.22
2018-01-18T22:30:27.132Z,99486.92
2018-01-18T22:32:54.640Z,99477.02
2018-01-18T22:35:22.207Z,99496.91
2018-01-18T22:37:55.280Z,99501.97
2018-01-18T22:40:23.776Z,99501.97
2018-01-18T22:42:52.018Z,99504.55
2018-01-18T22:45:19.946Z,99511.98
2018-01-18T22:47:50.272Z,99509.25
2018-01-18T22:50:17.807Z,99520.72
2018-01-18T22:52:45.316Z,99516.01
2018-01-18T22:55:12.856Z,99519.20
2018-01-18T22:57:40.436Z,99514.40
2018-01-18T23:00:07.950Z,99511.41
2018-01-18T23:02:35.533Z,99515.03
2018-01-18T23:05:03.042Z,99522.65
2018-01-18T23:07:30.570Z,99511.98
2018-01-18T23:09:58.081Z,99522.22
2018-01-18T23:12:25.601Z,99518.25
2018-01-18T23:14:55.058Z,99514.57
2018-01-18T23:17:22.731Z,99522.63
2018-01-18T23:19:50.250Z,99522.16
2018-01-18T23:22:17.770Z,99517.68
2018-01-18T23:24:45.426Z,99527.26
2018-01-18T23:27:12.953Z,99530.28
2018-01-18T23:29:40.473Z,99522.91
2018-01-18T23:32:07.989Z,99527.06
2018-01-18T23:34:35.553Z,99532.03
2018-01-18T23:37:03.111Z,99540.17
2018-01-18T23:39:30.639Z,99540.52
2018-01-18T23:41:58.146Z,99543.45
2018-01-18T23:44:25.669Z,99548.46
2018-01-18T23:46:53.180Z,99552.83
2018-01-18T23:49:22.047Z,99550.81
2018-01-18T23:51:49.598Z,99549.58
2018-01-18T23:54:17.211Z,99556.08
2018-01-18T23:56:44.736Z,99558.92
2018-01-18T23:59:12.240Z,99559.67
